CheckWX is a tool to help pilots better visualize weather data.  It is not intended as a substitute for an official pre-flight weather briefing.

02:50:47 UTC

KHFD METAR
Hartford-Brainard Airport
Hartford, Connecticut, USA
Current

58 mins ago

KHFD 230153Z 18004KT 10SM CLR 21/16 A3001 RMK AO2 SLP161 T02110161
Observed
Sep-23 @ 01:53 UTC
Wind
  • 180° at 4 KTS
Visibility
10 SM
Flight Rules
VFR
Cloud Levels
  • Clear skies
Temperature
21°C / 70°F
Dewpoint
16°C / 61°F
Humidity
73%
Altimeter
30.01" Hg
Pressure
1016.22 hPa
Previous

2 hours ago

KHFD 230053Z 18005KT 10SM CLR 22/16 A3002 RMK AO2 SLP164 T02220161
Observed
Sep-23 @ 00:53 UTC
Wind
  • 180° at 5 KTS
Visibility
10 SM
Flight Rules
VFR
Cloud Levels
  • Clear skies
Temperature
22°C / 72°F
Dewpoint
16°C / 61°F
Humidity
69%
Altimeter
30.02" Hg
Pressure
1016.62 hPa
Previous

3 hours ago

KHFD 222353Z 18006KT 10SM CLR 23/17 A3002 RMK AO2 SLP164 T02330167 10300 20233 53002
Observed
Sep-22 @ 23:53 UTC
Wind
  • 180° at 6 KTS
Visibility
10 SM
Flight Rules
VFR
Cloud Levels
  • Clear skies
Temperature
23°C / 73°F
Dewpoint
17°C / 63°F
Humidity
69%
Altimeter
30.02" Hg
Pressure
1016.62 hPa